createdAt,value
2023-04-12T00:00:49.393Z,2.10
2023-04-12T00:01:49.361Z,1.90
2023-04-12T00:02:49.544Z,2.30
2023-04-12T00:03:49.360Z,2.10
2023-04-12T00:04:49.353Z,2.20
2023-04-12T00:05:49.171Z,2.10
2023-04-12T00:06:49.128Z,2.20
2023-04-12T00:07:49.118Z,2.00
2023-04-12T00:08:49.039Z,2.40
2023-04-12T00:09:48.994Z,2.40
2023-04-12T00:10:48.951Z,1.90
2023-04-12T00:11:48.905Z,2.20
2023-04-12T00:12:48.860Z,2.10
2023-04-12T00:13:48.813Z,1.90
2023-04-12T00:14:48.769Z,2.50
2023-04-12T00:15:48.734Z,2.10
2023-04-12T00:16:48.683Z,2.20
2023-04-12T00:17:48.661Z,1.90
2023-04-12T00:18:48.595Z,2.20
2023-04-12T00:19:48.547Z,2.20
2023-04-12T00:20:48.507Z,2.20
2023-04-12T00:21:48.456Z,2.00
2023-04-12T00:22:48.411Z,2.30
2023-04-12T00:23:48.395Z,2.00
2023-04-12T00:24:48.335Z,2.10
2023-04-12T00:25:48.283Z,1.90
2023-04-12T00:26:48.249Z,2.10
2023-04-12T00:27:48.187Z,1.80
2023-04-12T00:28:48.144Z,2.60
2023-04-12T00:29:48.096Z,2.00
2023-04-12T00:30:48.060Z,1.80
2023-04-12T00:31:48.035Z,2.00
2023-04-12T00:32:48.031Z,1.80
2023-04-12T00:33:47.937Z,1.80
2023-04-12T00:34:47.879Z,1.90
2023-04-12T00:35:47.853Z,1.90
2023-04-12T00:36:47.783Z,1.60
2023-04-12T00:37:47.739Z,1.90
2023-04-12T00:38:47.706Z,1.90
2023-04-12T00:39:47.724Z,1.80
2023-04-12T00:40:47.604Z,2.10
2023-04-12T00:41:47.578Z,1.60
2023-04-12T00:42:47.599Z,1.90
2023-04-12T00:43:47.493Z,2.30
2023-04-12T00:44:47.515Z,2.00
2023-04-12T00:45:47.461Z,2.20
2023-04-12T00:46:47.392Z,2.00
2023-04-12T00:47:47.318Z,2.00
2023-04-12T00:48:47.246Z,1.90
2023-04-12T00:49:47.202Z,2.00
2023-04-12T00:50:47.151Z,1.90
2023-04-12T00:51:47.114Z,1.90
2023-04-12T00:52:47.060Z,2.10
2023-04-12T00:53:47.017Z,1.80
2023-04-12T00:54:46.972Z,1.80
2023-04-12T00:55:46.948Z,1.90
2023-04-12T00:56:46.881Z,2.00
2023-04-12T00:57:46.855Z,1.90
2023-04-12T00:58:46.810Z,2.10
2023-04-12T00:59:46.756Z,2.00
2023-04-12T01:00:46.738Z,2.30
2023-04-12T01:01:46.695Z,2.30
2023-04-12T01:02:46.776Z,2.00
2023-04-12T01:03:46.671Z,1.90
2023-04-12T01:04:46.542Z,2.10
2023-04-12T01:05:46.477Z,2.40
2023-04-12T01:06:46.428Z,1.80
2023-04-12T01:07:46.388Z,2.40
2023-04-12T01:08:46.336Z,2.00
2023-04-12T01:09:46.291Z,2.00
2023-04-12T01:10:46.245Z,2.00
2023-04-12T01:11:46.227Z,2.10
2023-04-12T01:12:46.159Z,2.00
2023-04-12T01:13:46.125Z,1.90
2023-04-12T01:14:46.063Z,2.50
2023-04-12T01:15:46.020Z,2.50
2023-04-12T01:16:46.054Z,2.20
2023-04-12T01:17:46.005Z,1.90
2023-04-12T01:18:45.895Z,2.10
2023-04-12T01:19:45.837Z,2.10
2023-04-12T01:20:45.793Z,2.00
2023-04-12T01:21:45.764Z,2.10
2023-04-12T01:22:45.700Z,2.20
2023-04-12T01:23:45.657Z,1.70
2023-04-12T01:24:45.607Z,2.40
2023-04-12T01:25:45.578Z,2.50
2023-04-12T01:26:45.521Z,2.30
2023-04-12T01:27:45.510Z,1.90
2023-04-12T01:28:45.438Z,2.00
2023-04-12T01:29:45.390Z,2.00
2023-04-12T01:30:45.345Z,2.30
2023-04-12T01:34:11.920Z,2.00
2023-04-12T01:35:11.840Z,2.30
2023-04-12T01:36:11.908Z,2.30
2023-04-12T01:37:11.788Z,2.50
2023-04-12T01:38:11.707Z,2.00
2023-04-12T01:39:11.660Z,2.20
2023-04-12T01:40:11.614Z,2.40
2023-04-12T01:41:11.570Z,2.20
2023-04-12T01:42:11.524Z,2.30
2023-04-12T01:43:11.497Z,2.00
2023-04-12T01:44:11.425Z,2.00
2023-04-12T01:45:11.460Z,2.60
2023-04-12T01:46:11.525Z,2.30
2023-04-12T01:47:11.290Z,2.10
2023-04-12T01:48:11.360Z,2.60
2023-04-12T01:49:11.199Z,2.50
2023-04-12T01:50:11.153Z,2.50
2023-04-12T01:51:11.117Z,2.40
2023-04-12T01:52:11.062Z,2.00
2023-04-12T01:53:11.013Z,2.20
2023-04-12T01:54:10.991Z,2.10
2023-04-12T01:55:10.928Z,2.30
2023-04-12T01:56:10.896Z,2.40
2023-04-12T21:17:13.103Z,0.90
2023-04-12T21:18:13.020Z,1.20
2023-04-12T21:19:12.962Z,1.00
2023-04-12T21:20:12.925Z,0.90
2023-04-12T21:21:12.865Z,0.80
2023-04-12T21:22:12.817Z,0.90
2023-04-12T21:23:12.763Z,0.80
2023-04-12T21:24:12.713Z,0.70
2023-04-12T21:25:12.665Z,1.00
2023-04-12T21:26:12.623Z,1.10
2023-04-12T21:27:12.571Z,1.00
2023-04-12T21:28:12.516Z,1.00
2023-04-12T21:29:12.474Z,0.80
2023-04-12T21:30:12.424Z,1.20
2023-04-12T21:31:12.383Z,1.00
2023-04-12T21:32:12.329Z,1.00
2023-04-12T21:33:12.305Z,0.90
2023-04-12T21:34:12.252Z,0.90
2023-04-12T21:35:12.186Z,1.00
2023-04-12T21:37:12.098Z,0.70
2023-04-12T21:38:12.059Z,0.90
